sensor_id;sensor_type;location;lat;lon;timestamp;pressure;altitude;pressure_sealevel;temperature;humidity
74921;BME280;63483;47.384;8.860;2023-08-31T00:01:47;94210.78;;;12.37;49.10
74921;BME280;63483;47.384;8.860;2023-08-31T00:04:17;94215.03;;;12.38;49.40
74921;BME280;63483;47.384;8.860;2023-08-31T00:06:43;94217.25;;;12.41;49.12
74921;BME280;63483;47.384;8.860;2023-08-31T00:09:11;94223.09;;;12.43;49.30
74921;BME280;63483;47.384;8.860;2023-08-31T00:11:36;94219.47;;;12.44;49.09
74921;BME280;63483;47.384;8.860;2023-08-31T00:14:02;94217.44;;;12.46;49.23
74921;BME280;63483;47.384;8.860;2023-08-31T00:16:27;94226.94;;;12.47;48.97
74921;BME280;63483;47.384;8.860;2023-08-31T00:18:53;94227.94;;;12.46;49.08
74921;BME280;63483;47.384;8.860;2023-08-31T00:21:20;94226.94;;;12.47;49.33
74921;BME280;63483;47.384;8.860;2023-08-31T00:23:46;94226.94;;;12.47;49.39
74921;BME280;63483;47.384;8.860;2023-08-31T00:26:11;94226.75;;;12.49;49.31
74921;BME280;63483;47.384;8.860;2023-08-31T00:28:36;94232.81;;;12.49;48.96
74921;BME280;63483;47.384;8.860;2023-08-31T00:31:02;94231.22;;;12.48;48.82
74921;BME280;63483;47.384;8.860;2023-08-31T00:33:31;94237.84;;;12.51;48.87
74921;BME280;63483;47.384;8.860;2023-08-31T00:36:01;94233.22;;;12.53;49.09
74921;BME280;63483;47.384;8.860;2023-08-31T00:38:28;94241.69;;;12.55;48.99
74921;BME280;63483;47.384;8.860;2023-08-31T00:40:54;94245.16;;;12.56;49.17
74921;BME280;63483;47.384;8.860;2023-08-31T00:43:19;94240.50;;;12.58;49.50
74921;BME280;63483;47.384;8.860;2023-08-31T00:45:48;94240.50;;;12.58;49.62
74921;BME280;63483;47.384;8.860;2023-08-31T00:48:17;94233.63;;;12.57;49.61
74921;BME280;63483;47.384;8.860;2023-08-31T00:50:46;94232.03;;;12.56;49.65
74921;BME280;63483;47.384;8.860;2023-08-31T00:53:12;94225.94;;;12.55;49.85
74921;BME280;63483;47.384;8.860;2023-08-31T00:55:37;94225.13;;;12.55;49.77
74921;BME280;63483;47.384;8.860;2023-08-31T00:58:05;94224.13;;;12.56;49.71
74921;BME280;63483;47.384;8.860;2023-08-31T01:00:43;94226.34;;;12.59;49.73
74921;BME280;63483;47.384;8.860;2023-08-31T01:03:23;94232.03;;;12.56;49.98
74921;BME280;63483;47.384;8.860;2023-08-31T01:08:34;94233.22;;;12.60;49.85
74921;BME280;63483;47.384;8.860;2023-08-31T01:11:27;94220.91;;;12.60;49.83
74921;BME280;63483;47.384;8.860;2023-08-31T01:14:02;94231.41;;;12.60;49.94
74921;BME280;63483;47.384;8.860;2023-08-31T01:16:33;94226.94;;;12.61;49.90
74921;BME280;63483;47.384;8.860;2023-08-31T01:19:02;94231.19;;;12.62;50.02
74921;BME280;63483;47.384;8.860;2023-08-31T01:21:38;94228.78;;;12.60;50.12
74921;BME280;63483;47.384;8.860;2023-08-31T01:24:05;94231.63;;;12.59;50.01
74921;BME280;63483;47.384;8.860;2023-08-31T01:26:32;94225.31;;;12.60;50.13
74921;BME280;63483;47.384;8.860;2023-08-31T01:28:57;94226.34;;;12.59;50.34
74921;BME280;63483;47.384;8.860;2023-08-31T01:31:23;94238.47;;;12.60;50.32
74921;BME280;63483;47.384;8.860;2023-08-31T01:33:48;94235.44;;;12.63;50.26
74921;BME280;63483;47.384;8.860;2023-08-31T01:36:19;94238.06;;;12.63;50.35
74921;BME280;63483;47.384;8.860;2023-08-31T01:38:48;94235.63;;;12.61;50.37
74921;BME280;63483;47.384;8.860;2023-08-31T01:41:17;94250.41;;;12.62;50.23
74921;BME280;63483;47.384;8.860;2023-08-31T01:43:45;94243.31;;;12.63;50.27
74921;BME280;63483;47.384;8.860;2023-08-31T01:46:12;94242.09;;;12.65;50.16
74921;BME280;63483;47.384;8.860;2023-08-31T01:48:39;94242.94;;;12.66;50.26
74921;BME280;63483;47.384;8.860;2023-08-31T01:51:07;94241.91;;;12.67;50.06
74921;BME280;63483;47.384;8.860;2023-08-31T01:53:32;94244.53;;;12.67;50.23
74921;BME280;63483;47.384;8.860;2023-08-31T01:55:57;94249.78;;;12.67;50.14
74921;BME280;63483;47.384;8.860;2023-08-31T01:58:23;94252.81;;;12.64;50.17
74921;BME280;63483;47.384;8.860;2023-08-31T02:00:48;94246.56;;;12.65;50.28
74921;BME280;63483;47.384;8.860;2023-08-31T02:03:13;94256.06;;;12.66;50.13
74921;BME280;63483;47.384;8.860;2023-08-31T02:05:39;94252.63;;;12.65;50.16
74921;BME280;63483;47.384;8.860;2023-08-31T02:08:04;94255.88;;;12.68;50.31
74921;BME280;63483;47.384;8.860;2023-08-31T02:10:29;94253.25;;;12.68;50.15
74921;BME280;63483;47.384;8.860;2023-08-31T02:12:55;94260.91;;;12.69;50.37
74921;BME280;63483;47.384;8.860;2023-08-31T02:15:20;94264.53;;;12.68;50.46
74921;BME280;63483;47.384;8.860;2023-08-31T02:17:45;94268.81;;;12.69;50.63
74921;BME280;63483;47.384;8.860;2023-08-31T02:20:11;94260.28;;;12.67;50.58
74921;BME280;63483;47.384;8.860;2023-08-31T02:22:36;94261.31;;;12.66;50.75
74921;BME280;63483;47.384;8.860;2023-08-31T02:25:02;94261.91;;;12.68;50.52
74921;BME280;63483;47.384;8.860;2023-08-31T02:27:28;94260.28;;;12.67;50.69
74921;BME280;63483;47.384;8.860;2023-08-31T02:29:53;94263.75;;;12.68;50.58
74921;BME280;63483;47.384;8.860;2023-08-31T02:32:19;94258.28;;;12.69;50.38
74921;BME280;63483;47.384;8.860;2023-08-31T02:34:44;94266.38;;;12.68;50.50
74921;BME280;63483;47.384;8.860;2023-08-31T02:37:10;94264.53;;;12.68;50.56
74921;BME280;63483;47.384;8.860;2023-08-31T02:39:35;94255.47;;;12.71;50.49
74921;BME280;63483;47.384;8.860;2023-08-31T02:42:01;94263.34;;;12.71;50.36
74921;BME280;63483;47.384;8.860;2023-08-31T02:44:26;94270.41;;;12.70;50.49
74921;BME280;63483;47.384;8.860;2023-08-31T02:46:52;94275.66;;;12.70;50.54
74921;BME280;63483;47.384;8.860;2023-08-31T02:49:17;94268.81;;;12.69;50.57
74921;BME280;63483;47.384;8.860;2023-08-31T02:51:42;94274.47;;;12.66;51.01
74921;BME280;63483;47.384;8.860;2023-08-31T02:54:07;94274.25;;;12.68;50.81
74921;BME280;63483;47.384;8.860;2023-08-31T02:56:33;94283.34;;;12.65;51.08
74921;BME280;63483;47.384;8.860;2023-08-31T02:58:58;94286.97;;;12.64;51.10
74921;BME280;63483;47.384;8.860;2023-08-31T03:01:23;94279.72;;;12.66;50.97
74921;BME280;63483;47.384;8.860;2023-08-31T03:03:49;94272.84;;;12.65;51.21
74921;BME280;63483;47.384;8.860;2023-08-31T03:06:15;94272.44;;;12.68;51.01
74921;BME280;63483;47.384;8.860;2023-08-31T03:08:40;94274.06;;;12.69;50.86
74921;BME280;63483;47.384;8.860;2023-08-31T03:11:06;94275.66;;;12.70;50.98
74921;BME280;63483;47.384;8.860;2023-08-31T03:13:32;94280.91;;;12.70;50.95
74921;BME280;63483;47.384;8.860;2023-08-31T03:15:58;94274.44;;;12.73;50.97
74921;BME280;63483;47.384;8.860;2023-08-31T03:18:24;94272.03;;;12.71;51.12
74921;BME280;63483;47.384;8.860;2023-08-31T03:20:49;94278.91;;;12.72;50.92
74921;BME280;63483;47.384;8.860;2023-08-31T03:23:14;94278.06;;;12.72;50.86
74921;BME280;63483;47.384;8.860;2023-08-31T03:25:40;94278.91;;;12.72;50.84
74921;BME280;63483;47.384;8.860;2023-08-31T03:28:06;94275.25;;;12.73;51.16
74921;BME280;63483;47.384;8.860;2023-08-31T03:30:31;94272.03;;;12.71;51.24
74921;BME280;63483;47.384;8.860;2023-08-31T03:32:57;94268.38;;;12.72;51.09
74921;BME280;63483;47.384;8.860;2023-08-31T03:35:22;94273.66;;;12.72;51.08
74921;BME280;63483;47.384;8.860;2023-08-31T03:37:52;94269.19;;;12.73;51.15
74921;BME280;63483;47.384;8.860;2023-08-31T03:40:18;94280.50;;;12.73;51.08
74921;BME280;63483;47.384;8.860;2023-08-31T03:42:44;94276.06;;;12.74;51.20
74921;BME280;63483;47.384;8.860;2023-08-31T03:45:11;94286.38;;;12.75;51.10
74921;BME280;63483;47.384;8.860;2023-08-31T03:47:36;94282.13;;;12.74;51.07
74921;BME280;63483;47.384;8.860;2023-08-31T03:50:02;94296.88;;;12.75;51.18
74921;BME280;63483;47.384;8.860;2023-08-31T03:52:27;94286.38;;;12.75;51.16
74921;BME280;63483;47.384;8.860;2023-08-31T03:54:53;94283.13;;;12.73;50.94
74921;BME280;63483;47.384;8.860;2023-08-31T03:57:18;94286.59;;;12.74;50.92
74921;BME280;63483;47.384;8.860;2023-08-31T03:59:43;94296.25;;;12.73;51.25
74921;BME280;63483;47.384;8.860;2023-08-31T04:02:09;94292.84;;;12.73;51.32
74921;BME280;63483;47.384;8.860;2023-08-31T04:04:34;94298.28;;;12.71;51.24
74921;BME280;63483;47.384;8.860;2023-08-31T04:07:00;94302.56;;;12.72;51.38
74921;BME280;63483;47.384;8.860;2023-08-31T04:09:25;94305.19;;;12.72;51.43
74921;BME280;63483;47.384;8.860;2023-08-31T04:11:51;94301.72;;;12.72;51.14
74921;BME280;63483;47.384;8.860;2023-08-31T04:14:16;94298.28;;;12.71;51.31
74921;BME280;63483;47.384;8.860;2023-08-31T04:16:43;94302.13;;;12.69;51.37
74921;BME280;63483;47.384;8.860;2023-08-31T04:19:08;94304.75;;;12.69;51.39
74921;BME280;63483;47.384;8.860;2023-08-31T04:21:34;94324.19;;;12.68;51.62
74921;BME280;63483;47.384;8.860;2023-08-31T04:23:59;94322.75;;;12.65;51.34
74921;BME280;63483;47.384;8.860;2023-08-31T04:26:25;94321.31;;;12.62;51.22
74921;BME280;63483;47.384;8.860;2023-08-31T04:28:50;94333.47;;;12.63;51.38
74921;BME280;63483;47.384;8.860;2023-08-31T04:31:16;94318.50;;;12.64;51.36
74921;BME280;63483;47.384;8.860;2023-08-31T04:33:41;94324.75;;;12.63;51.09
74921;BME280;63483;47.384;8.860;2023-08-31T04:36:06;94324.16;;;12.61;51.08
74921;BME280;63483;47.384;8.860;2023-08-31T04:38:33;94323.16;;;12.62;51.10
74921;BME280;63483;47.384;8.860;2023-08-31T04:40:59;94326.38;;;12.64;50.51
74921;BME280;63483;47.384;8.860;2023-08-31T04:43:24;94330.63;;;12.65;50.54
74921;BME280;63483;47.384;8.860;2023-08-31T04:45:51;94329.84;;;12.64;50.92
74921;BME280;63483;47.384;8.860;2023-08-31T04:48:16;94326.19;;;12.65;50.68
74921;BME280;63483;47.384;8.860;2023-08-31T04:50:42;94326.19;;;12.65;50.76
74921;BME280;63483;47.384;8.860;2023-08-31T04:53:07;94327.81;;;12.66;50.89
74921;BME280;63483;47.384;8.860;2023-08-31T04:55:33;94327.81;;;12.66;51.01
74921;BME280;63483;47.384;8.860;2023-08-31T04:57:58;94331.03;;;12.69;51.30
74921;BME280;63483;47.384;8.860;2023-08-31T05:00:23;94338.13;;;12.68;51.27
74921;BME280;63483;47.384;8.860;2023-08-31T05:02:49;94354.47;;;12.70;51.41
74921;BME280;63483;47.384;8.860;2023-08-31T05:05:14;94360.53;;;12.64;51.11
74921;BME280;63483;47.384;8.860;2023-08-31T05:07:39;94360.94;;;12.61;51.31
74921;BME280;63483;47.384;8.860;2023-08-31T05:10:06;94363.38;;;12.56;50.81
74921;BME280;63483;47.384;8.860;2023-08-31T05:12:31;94366.34;;;12.46;50.07
74921;BME280;63483;47.384;8.860;2023-08-31T05:14:56;94373.84;;;12.42;50.75
74921;BME280;63483;47.384;8.860;2023-08-31T05:17:22;94382.31;;;12.44;50.94
74921;BME280;63483;47.384;8.860;2023-08-31T05:19:47;94382.91;;;12.46;51.29
74921;BME280;63483;47.384;8.860;2023-08-31T05:22:13;94385.53;;;12.46;50.92
74921;BME280;63483;47.384;8.860;2023-08-31T05:24:39;94382.31;;;12.44;50.81
74921;BME280;63483;47.384;8.860;2023-08-31T05:27:04;94394.84;;;12.42;51.12
74921;BME280;63483;47.384;8.860;2023-08-31T05:29:30;94377.47;;;12.41;51.00
74921;BME280;63483;47.384;8.860;2023-08-31T05:31:55;94394.84;;;12.42;51.17
74921;BME280;63483;47.384;8.860;2023-08-31T05:34:21;94386.97;;;12.42;51.43
74921;BME280;63483;47.384;8.860;2023-08-31T05:36:48;94391.19;;;12.43;51.47
74921;BME280;63483;47.384;8.860;2023-08-31T05:39:13;94395.44;;;12.44;51.36
74921;BME280;63483;47.384;8.860;2023-08-31T05:41:40;94396.25;;;12.45;51.20
74921;BME280;63483;47.384;8.860;2023-08-31T05:44:06;94400.50;;;12.46;51.33
74921;BME280;63483;47.384;8.860;2023-08-31T05:46:31;94399.72;;;12.45;51.59
74921;BME280;63483;47.384;8.860;2023-08-31T05:48:57;94390.19;;;12.44;51.60
74921;BME280;63483;47.384;8.860;2023-08-31T05:51:22;94393.22;;;12.41;51.50
74921;BME280;63483;47.384;8.860;2023-08-31T05:53:47;94394.00;;;12.35;51.73
74921;BME280;63483;47.384;8.860;2023-08-31T05:56:13;94396.63;;;12.35;52.20
74921;BME280;63483;47.384;8.860;2023-08-31T05:58:38;94411.38;;;12.36;52.08
74921;BME280;63483;47.384;8.860;2023-08-31T06:01:04;94410.19;;;12.39;52.48
74921;BME280;63483;47.384;8.860;2023-08-31T06:03:30;94415.03;;;12.42;52.16
74921;BME280;63483;47.384;8.860;2023-08-31T06:05:56;94421.91;;;12.43;51.99
74921;BME280;63483;47.384;8.860;2023-08-31T06:08:22;94426.38;;;12.42;52.42
74921;BME280;63483;47.384;8.860;2023-08-31T06:10:48;94431.97;;;12.39;52.43
74921;BME280;63483;47.384;8.860;2023-08-31T06:13:13;94431.97;;;12.39;52.36
74921;BME280;63483;47.384;8.860;2023-08-31T06:15:38;94419.47;;;12.41;52.60
74921;BME280;63483;47.384;8.860;2023-08-31T06:18:04;94427.16;;;12.43;52.65
74921;BME280;63483;47.384;8.860;2023-08-31T06:20:30;94423.94;;;12.47;53.09
74921;BME280;63483;47.384;8.860;2023-08-31T06:22:55;94423.56;;;12.51;52.54
74921;BME280;63483;47.384;8.860;2023-08-31T06:25:21;94434.06;;;12.51;52.46
74921;BME280;63483;47.384;8.860;2023-08-31T06:27:48;94439.94;;;12.53;52.66
74921;BME280;63483;47.384;8.860;2023-08-31T06:30:13;94436.50;;;12.52;52.78
74921;BME280;63483;47.384;8.860;2023-08-31T06:32:44;94436.91;;;12.56;53.04
74921;BME280;63483;47.384;8.860;2023-08-31T06:35:11;94441.53;;;12.54;52.96
74921;BME280;63483;47.384;8.860;2023-08-31T06:37:40;94448.44;;;12.55;52.47
74921;BME280;63483;47.384;8.860;2023-08-31T06:40:07;94446.41;;;12.57;52.49
74921;BME280;63483;47.384;8.860;2023-08-31T06:42:36;94449.84;;;12.57;52.44
74921;BME280;63483;47.384;8.860;2023-08-31T06:45:06;94450.84;;;12.63;52.71
74921;BME280;63483;47.384;8.860;2023-08-31T06:47:33;94442.59;;;12.66;52.10
74921;BME280;63483;47.384;8.860;2023-08-31T06:49:59;94454.72;;;12.67;51.96
74921;BME280;63483;47.384;8.860;2023-08-31T06:52:26;94450.50;;;12.66;52.22
74921;BME280;63483;47.384;8.860;2023-08-31T06:54:51;94457.59;;;12.72;52.57
74921;BME280;63483;47.384;8.860;2023-08-31T06:57:24;94445.50;;;12.78;52.72
74921;BME280;63483;47.384;8.860;2023-08-31T06:59:49;94456.81;;;12.78;52.44
74921;BME280;63483;47.384;8.860;2023-08-31T07:02:15;94460.41;;;12.77;52.63
74921;BME280;63483;47.384;8.860;2023-08-31T07:04:40;94465.31;;;12.80;52.57
74921;BME280;63483;47.384;8.860;2023-08-31T07:07:05;94478.25;;;12.82;52.43
74921;BME280;63483;47.384;8.860;2023-08-31T07:09:31;94472.97;;;12.82;52.39
74921;BME280;63483;47.384;8.860;2023-08-31T07:11:56;94470.56;;;12.80;52.60
74921;BME280;63483;47.384;8.860;2023-08-31T07:14:23;94471.38;;;12.81;52.83
74921;BME280;63483;47.384;8.860;2023-08-31T07:16:48;94482.91;;;12.87;52.55
74921;BME280;63483;47.384;8.860;2023-08-31T07:19:14;94485.53;;;12.87;52.72
74921;BME280;63483;47.384;8.860;2023-08-31T07:21:39;94469.56;;;12.81;52.44
74921;BME280;63483;47.384;8.860;2023-08-31T07:24:04;94481.06;;;12.80;52.63
74921;BME280;63483;47.384;8.860;2023-08-31T07:26:30;94486.31;;;12.80;52.41
74921;BME280;63483;47.384;8.860;2023-08-31T07:28:55;94474.56;;;12.76;52.63
74921;BME280;63483;47.384;8.860;2023-08-31T07:31:21;94477.84;;;12.78;52.70
74921;BME280;63483;47.384;8.860;2023-08-31T07:33:46;94475.81;;;12.80;52.95
74921;BME280;63483;47.384;8.860;2023-08-31T07:36:11;94489.97;;;12.79;53.13
74921;BME280;63483;47.384;8.860;2023-08-31T07:38:36;94496.03;;;12.80;53.25
74921;BME280;63483;47.384;8.860;2023-08-31T07:41:02;94502.31;;;12.86;53.46
74921;BME280;63483;47.384;8.860;2023-08-31T07:43:29;94509.22;;;12.93;53.17
74921;BME280;63483;47.384;8.860;2023-08-31T07:45:55;94503.78;;;13.02;53.24
74921;BME280;63483;47.384;8.860;2023-08-31T07:48:21;94520.16;;;13.10;52.95
74921;BME280;63483;47.384;8.860;2023-08-31T07:50:46;94522.84;;;13.17;52.83
74921;BME280;63483;47.384;8.860;2023-08-31T07:53:13;94514.56;;;13.27;52.28
74921;BME280;63483;47.384;8.860;2023-08-31T07:55:39;94521.47;;;13.34;52.44
74921;BME280;63483;47.384;8.860;2023-08-31T07:58:04;94517.22;;;13.40;52.09
74921;BME280;63483;47.384;8.860;2023-08-31T08:00:30;94526.50;;;13.43;51.62
74921;BME280;63483;47.384;8.860;2023-08-31T08:02:55;94524.47;;;13.38;51.47
74921;BME280;63483;47.384;8.860;2023-08-31T08:05:20;94530.94;;;13.35;51.42
74921;BME280;63483;47.384;8.860;2023-08-31T08:07:46;94529.13;;;13.29;51.73
74921;BME280;63483;47.384;8.860;2023-08-31T08:10:12;94535.19;;;13.36;51.68
74921;BME280;63483;47.384;8.860;2023-08-31T08:12:39;94525.72;;;13.42;52.19
74921;BME280;63483;47.384;8.860;2023-08-31T08:15:06;94525.31;;;13.45;51.91
74921;BME280;63483;47.384;8.860;2023-08-31T08:17:34;94524.28;;;13.53;51.80
74921;BME280;63483;47.384;8.860;2023-08-31T08:19:59;94526.13;;;13.59;51.96
74921;BME280;63483;47.384;8.860;2023-08-31T08:22:25;94542.56;;;13.68;51.97
74921;BME280;63483;47.384;8.860;2023-08-31T08:24:50;94551.66;;;13.72;51.56
74921;BME280;63483;47.384;8.860;2023-08-31T08:27:16;94554.13;;;13.80;51.78
74921;BME280;63483;47.384;8.860;2023-08-31T08:29:43;94555.34;;;13.84;51.43
74921;BME280;63483;47.384;8.860;2023-08-31T08:32:08;94553.09;;;13.88;51.70
74921;BME280;63483;47.384;8.860;2023-08-31T08:34:34;94544.00;;;13.91;51.32
74921;BME280;63483;47.384;8.860;2023-08-31T08:36:59;94543.59;;;13.94;51.65
74921;BME280;63483;47.384;8.860;2023-08-31T08:39:24;94549.66;;;14.01;51.63
74921;BME280;63483;47.384;8.860;2023-08-31T08:41:50;94550.47;;;14.08;51.32
74921;BME280;63483;47.384;8.860;2023-08-31T08:44:20;94555.31;;;14.11;50.94
74921;BME280;63483;47.384;8.860;2023-08-31T08:46:47;94562.19;;;14.19;50.90
74921;BME280;63483;47.384;8.860;2023-08-31T08:49:14;94558.53;;;14.27;50.72
74921;BME280;63483;47.384;8.860;2023-08-31T08:51:40;94556.69;;;14.27;49.48
74921;BME280;63483;47.384;8.860;2023-08-31T08:54:06;94573.13;;;14.29;49.88
74921;BME280;63483;47.384;8.860;2023-08-31T08:56:31;94561.34;;;14.32;49.98
74921;BME280;63483;47.384;8.860;2023-08-31T08:58:57;94560.97;;;14.35;50.17
74921;BME280;63483;47.384;8.860;2023-08-31T09:01:23;94572.31;;;14.35;49.68
74921;BME280;63483;47.384;8.860;2023-08-31T09:03:49;94575.16;;;14.34;49.67
74921;BME280;63483;47.384;8.860;2023-08-31T09:06:15;94584.06;;;14.33;48.99
74921;BME280;63483;47.384;8.860;2023-08-31T09:08:41;94583.44;;;14.37;49.23
74921;BME280;63483;47.384;8.860;2023-08-31T09:11:06;94573.53;;;14.39;49.13
74921;BME280;63483;47.384;8.860;2023-08-31T09:13:32;94583.22;;;14.39;48.12
74921;BME280;63483;47.384;8.860;2023-08-31T09:15:59;94576.78;;;14.28;48.58
74921;BME280;63483;47.384;8.860;2023-08-31T09:18:29;94573.31;;;14.41;47.99
74921;BME280;63483;47.384;8.860;2023-08-31T09:20:55;94579.19;;;14.43;47.54
74921;BME280;63483;47.384;8.860;2023-08-31T09:23:24;94569.66;;;14.42;46.90
74921;BME280;63483;47.384;8.860;2023-08-31T09:25:54;94573.50;;;14.46;46.75
74921;BME280;63483;47.384;8.860;2023-08-31T09:28:21;94575.72;;;14.49;46.85
74921;BME280;63483;47.384;8.860;2023-08-31T09:30:48;94580.19;;;14.49;46.63
74921;BME280;63483;47.384;8.860;2023-08-31T09:33:16;94586.50;;;14.54;47.15
74921;BME280;63483;47.384;8.860;2023-08-31T09:36:06;94576.75;;;14.55;46.90
74921;BME280;63483;47.384;8.860;2023-08-31T09:38:32;94577.97;;;14.59;46.84
74921;BME280;63483;47.384;8.860;2023-08-31T09:41:04;94579.56;;;14.67;46.31
74921;BME280;63483;47.384;8.860;2023-08-31T09:43:30;94580.38;;;14.67;46.37
74921;BME280;63483;47.384;8.860;2023-08-31T09:45:56;94581.19;;;14.68;46.44
74921;BME280;63483;47.384;8.860;2023-08-31T09:48:22;94569.03;;;14.73;46.24
74921;BME280;63483;47.384;8.860;2023-08-31T09:50:48;94570.22;;;14.71;46.04
74921;BME280;63483;47.384;8.860;2023-08-31T09:53:16;94575.50;;;14.71;45.83
74921;BME280;63483;47.384;8.860;2023-08-31T09:55:43;94577.13;;;14.72;46.49
74921;BME280;63483;47.384;8.860;2023-08-31T09:58:08;94580.94;;;14.76;46.50
74921;BME280;63483;47.384;8.860;2023-08-31T10:00:36;94573.66;;;14.78;46.87
74921;BME280;63483;47.384;8.860;2023-08-31T10:03:04;94575.88;;;14.81;45.78
74921;BME280;63483;47.384;8.860;2023-08-31T10:05:30;94579.09;;;14.83;45.53
74921;BME280;63483;47.384;8.860;2023-08-31T10:07:57;94582.38;;;14.85;45.66
74921;BME280;63483;47.384;8.860;2023-08-31T10:10:23;94578.94;;;14.78;44.92
74921;BME280;63483;47.384;8.860;2023-08-31T10:12:49;94586.00;;;14.84;45.68
74921;BME280;63483;47.384;8.860;2023-08-31T10:15:15;94581.53;;;14.91;45.25
74921;BME280;63483;47.384;8.860;2023-08-31T10:17:41;94571.75;;;14.99;45.91
74921;BME280;63483;47.384;8.860;2023-08-31T10:20:08;94571.34;;;14.95;45.06
74921;BME280;63483;47.384;8.860;2023-08-31T10:22:35;94567.34;;;14.92;44.12
74921;BME280;63483;47.384;8.860;2023-08-31T10:25:03;94563.66;;;14.93;43.31
74921;BME280;63483;47.384;8.860;2023-08-31T10:38:28;94556.97;;;14.91;44.12
74921;BME280;63483;47.384;8.860;2023-08-31T10:46:36;94556.31;;;15.09;43.97
74921;BME280;63483;47.384;8.860;2023-08-31T10:51:38;94558.69;;;15.17;42.81
74921;BME280;63483;47.384;8.860;2023-08-31T10:54:19;94562.94;;;15.18;43.24
74921;BME280;63483;47.384;8.860;2023-08-31T10:59:23;94558.88;;;15.22;43.46
74921;BME280;63483;47.384;8.860;2023-08-31T11:01:56;94558.63;;;15.31;43.00
74921;BME280;63483;47.384;8.860;2023-08-31T11:04:23;94559.41;;;15.38;43.24
74921;BME280;63483;47.384;8.860;2023-08-31T11:07:11;94568.53;;;15.42;43.16
74921;BME280;63483;47.384;8.860;2023-08-31T11:09:37;94569.13;;;15.44;43.56
74921;BME280;63483;47.384;8.860;2023-08-31T11:12:03;94564.88;;;15.43;43.16
74921;BME280;63483;47.384;8.860;2023-08-31T11:14:28;94561.19;;;15.44;42.67
74921;BME280;63483;47.384;8.860;2023-08-31T11:16:54;94564.03;;;15.49;42.12
74921;BME280;63483;47.384;8.860;2023-08-31T11:19:20;94563.41;;;15.47;41.97
74921;BME280;63483;47.384;8.860;2023-08-31T11:21:45;94565.41;;;15.52;42.67
74921;BME280;63483;47.384;8.860;2023-08-31T11:24:10;94565.81;;;15.55;41.93
74921;BME280;63483;47.384;8.860;2023-08-31T11:26:36;94558.06;;;15.60;42.36
74921;BME280;63483;47.384;8.860;2023-08-31T11:29:06;94555.16;;;15.69;41.04
74921;BME280;63483;47.384;8.860;2023-08-31T11:31:31;94553.09;;;15.71;41.95
74921;BME280;63483;47.384;8.860;2023-08-31T11:33:56;94551.84;;;15.80;41.51
74921;BME280;63483;47.384;8.860;2023-08-31T11:36:22;94553.44;;;15.81;41.42
74921;BME280;63483;47.384;8.860;2023-08-31T11:38:48;94557.84;;;15.87;41.65
74921;BME280;63483;47.384;8.860;2023-08-31T11:41:14;94546.88;;;15.90;41.42
74921;BME280;63483;47.384;8.860;2023-08-31T11:43:39;94557.59;;;15.95;41.57
74921;BME280;63483;47.384;8.860;2023-08-31T11:46:05;94553.50;;;16.00;41.92
74921;BME280;63483;47.384;8.860;2023-08-31T11:48:31;94552.50;;;16.01;40.59
74921;BME280;63483;47.384;8.860;2023-08-31T11:50:58;94550.69;;;15.94;39.59
74921;BME280;63483;47.384;8.860;2023-08-31T11:53:24;94552.16;;;15.90;40.25
74921;BME280;63483;47.384;8.860;2023-08-31T11:55:51;94559.06;;;15.91;41.41
74921;BME280;63483;47.384;8.860;2023-08-31T11:58:19;94557.84;;;15.87;41.22
74921;BME280;63483;47.384;8.860;2023-08-31T12:00:44;94556.59;;;15.96;41.43
74921;BME280;63483;47.384;8.860;2023-08-31T12:03:11;94559.38;;;16.02;40.55
74921;BME280;63483;47.384;8.860;2023-08-31T12:05:47;94560.56;;;16.06;40.78
74921;BME280;63483;47.384;8.860;2023-08-31T12:08:14;94557.34;;;16.04;41.69
74921;BME280;63483;47.384;8.860;2023-08-31T12:10:41;94560.56;;;16.06;39.68
74921;BME280;63483;47.384;8.860;2023-08-31T12:13:10;94563.44;;;16.04;39.73
74921;BME280;63483;47.384;8.860;2023-08-31T12:15:36;94563.75;;;15.89;40.17
74921;BME280;63483;47.384;8.860;2023-08-31T12:18:11;94563.53;;;15.91;40.77
74921;BME280;63483;47.384;8.860;2023-08-31T12:20:43;94564.72;;;15.95;41.32
74921;BME280;63483;47.384;8.860;2023-08-31T12:23:09;94559.38;;;16.02;40.64
74921;BME280;63483;47.384;8.860;2023-08-31T12:25:35;94572.34;;;16.10;40.66
74921;BME280;63483;47.384;8.860;2023-08-31T12:28:00;94566.44;;;16.08;39.96
74921;BME280;63483;47.384;8.860;2023-08-31T12:30:25;94575.59;;;16.12;40.11
74921;BME280;63483;47.384;8.860;2023-08-31T12:32:51;94564.44;;;16.10;39.10
74921;BME280;63483;47.384;8.860;2023-08-31T12:35:17;94573.75;;;16.12;39.09
74921;BME280;63483;47.384;8.860;2023-08-31T12:37:42;94562.75;;;16.15;40.25
74921;BME280;63483;47.384;8.860;2023-08-31T12:40:08;94565.31;;;16.22;40.30
74921;BME280;63483;47.384;8.860;2023-08-31T12:42:35;94566.88;;;16.30;40.80
74921;BME280;63483;47.384;8.860;2023-08-31T12:45:00;94561.69;;;16.42;40.18
74921;BME280;63483;47.384;8.860;2023-08-31T12:47:25;94559.78;;;16.49;39.28
74921;BME280;63483;47.384;8.860;2023-08-31T12:49:51;94560.53;;;16.56;39.72
74921;BME280;63483;47.384;8.860;2023-08-31T12:52:16;94556.78;;;16.64;40.01
74921;BME280;63483;47.384;8.860;2023-08-31T12:54:41;94556.13;;;16.68;38.85
74921;BME280;63483;47.384;8.860;2023-08-31T12:57:07;94556.50;;;16.72;39.32
74921;BME280;63483;47.384;8.860;2023-08-31T12:59:32;94547.78;;;16.72;38.95
74921;BME280;63483;47.384;8.860;2023-08-31T13:01:57;94545.91;;;16.54;38.34
74921;BME280;63483;47.384;8.860;2023-08-31T13:04:23;94538.94;;;16.59;39.59
74921;BME280;63483;47.384;8.860;2023-08-31T13:06:48;94546.88;;;16.59;39.80
74921;BME280;63483;47.384;8.860;2023-08-31T13:09:13;94546.66;;;16.61;39.71
74921;BME280;63483;47.384;8.860;2023-08-31T13:11:39;94549.06;;;16.62;39.30
74921;BME280;63483;47.384;8.860;2023-08-31T13:14:04;94554.97;;;16.64;40.17
74921;BME280;63483;47.384;8.860;2023-08-31T13:16:30;94554.53;;;16.67;39.44
74921;BME280;63483;47.384;8.860;2023-08-31T13:18:55;94547.78;;;16.72;39.95
74921;BME280;63483;47.384;8.860;2023-08-31T13:21:20;94549.75;;;16.76;39.13